sensor_id;sensor_type;location;lat;lon;timestamp;P1;durP1;ratioP1;P2;durP2;ratioP2
3875;SDS011;1953;51.222;6.624;2022-11-15T00:01:48;19.03;;;14.20;;
3875;SDS011;1953;51.222;6.624;2022-11-15T00:08:29;22.30;;;14.77;;
3875;SDS011;1953;51.222;6.624;2022-11-15T00:13:13;21.60;;;14.70;;
3875;SDS011;1953;51.222;6.624;2022-11-15T00:17:55;25.47;;;14.17;;
3875;SDS011;1953;51.222;6.624;2022-11-15T00:22:37;19.30;;;13.03;;
3875;SDS011;1953;51.222;6.624;2022-11-15T00:27:21;20.73;;;13.33;;
3875;SDS011;1953;51.222;6.624;2022-11-15T00:32:03;22.00;;;14.03;;
3875;SDS011;1953;51.222;6.624;2022-11-15T00:36:46;18.87;;;13.27;;
3875;SDS011;1953;51.222;6.624;2022-11-15T00:41:28;23.23;;;14.03;;
3875;SDS011;1953;51.222;6.624;2022-11-15T00:46:12;28.97;;;14.70;;
3875;SDS011;1953;51.222;6.624;2022-11-15T00:50:55;19.37;;;13.33;;
3875;SDS011;1953;51.222;6.624;2022-11-15T00:55:37;19.10;;;13.20;;
3875;SDS011;1953;51.222;6.624;2022-11-15T01:00:19;19.30;;;13.10;;
3875;SDS011;1953;51.222;6.624;2022-11-15T01:05:04;19.77;;;13.60;;
3875;SDS011;1953;51.222;6.624;2022-11-15T01:09:46;19.90;;;13.83;;
3875;SDS011;1953;51.222;6.624;2022-11-15T01:14:29;22.67;;;13.63;;
3875;SDS011;1953;51.222;6.624;2022-11-15T01:19:11;19.83;;;13.87;;
3875;SDS011;1953;51.222;6.624;2022-11-15T01:23:55;22.50;;;14.30;;
3875;SDS011;1953;51.222;6.624;2022-11-15T01:28:39;26.80;;;14.70;;
3875;SDS011;1953;51.222;6.624;2022-11-15T01:33:22;22.37;;;14.03;;
3875;SDS011;1953;51.222;6.624;2022-11-15T01:38:04;19.50;;;13.27;;
3875;SDS011;1953;51.222;6.624;2022-11-15T01:42:48;24.50;;;14.70;;
3875;SDS011;1953;51.222;6.624;2022-11-15T01:47:31;23.83;;;13.93;;
3875;SDS011;1953;51.222;6.624;2022-11-15T01:52:19;22.80;;;13.60;;
3875;SDS011;1953;51.222;6.624;2022-11-15T01:57:04;21.67;;;13.60;;
3875;SDS011;1953;51.222;6.624;2022-11-15T02:01:51;21.80;;;13.13;;
3875;SDS011;1953;51.222;6.624;2022-11-15T02:06:34;18.00;;;13.03;;
3875;SDS011;1953;51.222;6.624;2022-11-15T02:11:17;21.13;;;13.57;;
3875;SDS011;1953;51.222;6.624;2022-11-15T02:16:02;19.70;;;13.70;;
3875;SDS011;1953;51.222;6.624;2022-11-15T02:20:55;22.30;;;13.93;;
3875;SDS011;1953;51.222;6.624;2022-11-15T02:25:48;19.33;;;12.90;;
3875;SDS011;1953;51.222;6.624;2022-11-15T02:30:41;20.40;;;13.07;;
3875;SDS011;1953;51.222;6.624;2022-11-15T02:35:28;18.37;;;13.40;;
3875;SDS011;1953;51.222;6.624;2022-11-15T02:40:20;19.77;;;12.90;;
3875;SDS011;1953;51.222;6.624;2022-11-15T02:45:12;22.73;;;12.70;;
3875;SDS011;1953;51.222;6.624;2022-11-15T02:50:01;18.37;;;13.03;;
3875;SDS011;1953;51.222;6.624;2022-11-15T02:54:52;18.80;;;12.40;;
3875;SDS011;1953;51.222;6.624;2022-11-15T02:59:40;21.30;;;13.20;;
3875;SDS011;1953;51.222;6.624;2022-11-15T03:04:36;19.47;;;12.50;;
3875;SDS011;1953;51.222;6.624;2022-11-15T03:09:29;23.00;;;14.20;;
3875;SDS011;1953;51.222;6.624;2022-11-15T03:14:18;21.50;;;13.30;;
3875;SDS011;1953;51.222;6.624;2022-11-15T03:19:07;22.10;;;13.40;;
3875;SDS011;1953;51.222;6.624;2022-11-15T03:23:55;20.77;;;14.00;;
3875;SDS011;1953;51.222;6.624;2022-11-15T03:28:42;18.67;;;13.47;;
3875;SDS011;1953;51.222;6.624;2022-11-15T03:33:28;20.27;;;13.10;;
3875;SDS011;1953;51.222;6.624;2022-11-15T03:38:14;23.43;;;13.90;;
3875;SDS011;1953;51.222;6.624;2022-11-15T03:43:02;21.90;;;12.90;;
3875;SDS011;1953;51.222;6.624;2022-11-15T03:47:51;16.83;;;12.13;;
3875;SDS011;1953;51.222;6.624;2022-11-15T03:52:40;20.63;;;12.60;;
3875;SDS011;1953;51.222;6.624;2022-11-15T03:57:23;20.87;;;12.93;;
3875;SDS011;1953;51.222;6.624;2022-11-15T04:02:06;24.90;;;12.67;;
3875;SDS011;1953;51.222;6.624;2022-11-15T04:06:49;19.57;;;12.23;;
3875;SDS011;1953;51.222;6.624;2022-11-15T04:11:32;19.00;;;11.80;;
3875;SDS011;1953;51.222;6.624;2022-11-15T04:16:14;19.90;;;12.87;;
3875;SDS011;1953;51.222;6.624;2022-11-15T04:20:57;17.90;;;11.70;;
3875;SDS011;1953;51.222;6.624;2022-11-15T04:25:59;17.97;;;12.13;;
3875;SDS011;1953;51.222;6.624;2022-11-15T04:30:43;18.80;;;12.57;;
3875;SDS011;1953;51.222;6.624;2022-11-15T04:35:25;15.77;;;11.83;;
3875;SDS011;1953;51.222;6.624;2022-11-15T04:40:08;16.40;;;12.13;;
3875;SDS011;1953;51.222;6.624;2022-11-15T04:44:52;17.37;;;12.13;;
3875;SDS011;1953;51.222;6.624;2022-11-15T04:49:34;20.50;;;12.60;;
3875;SDS011;1953;51.222;6.624;2022-11-15T04:54:17;16.70;;;12.20;;
3875;SDS011;1953;51.222;6.624;2022-11-15T04:58:59;21.20;;;11.70;;
3875;SDS011;1953;51.222;6.624;2022-11-15T05:03:43;18.60;;;11.47;;
3875;SDS011;1953;51.222;6.624;2022-11-15T05:08:44;14.93;;;11.37;;
3875;SDS011;1953;51.222;6.624;2022-11-15T05:13:26;15.43;;;11.50;;
3875;SDS011;1953;51.222;6.624;2022-11-15T05:18:09;19.57;;;10.80;;
3875;SDS011;1953;51.222;6.624;2022-11-15T05:22:53;18.67;;;12.40;;
3875;SDS011;1953;51.222;6.624;2022-11-15T05:27:36;14.70;;;11.17;;
3875;SDS011;1953;51.222;6.624;2022-11-15T05:32:18;18.10;;;11.70;;
3875;SDS011;1953;51.222;6.624;2022-11-15T05:37:01;17.60;;;12.13;;
3875;SDS011;1953;51.222;6.624;2022-11-15T05:41:46;15.30;;;11.37;;
3875;SDS011;1953;51.222;6.624;2022-11-15T05:46:33;16.23;;;11.53;;
3875;SDS011;1953;51.222;6.624;2022-11-15T05:51:17;14.37;;;10.93;;
3875;SDS011;1953;51.222;6.624;2022-11-15T05:56:01;18.83;;;11.70;;
3875;SDS011;1953;51.222;6.624;2022-11-15T06:00:47;15.67;;;11.03;;
3875;SDS011;1953;51.222;6.624;2022-11-15T06:05:30;15.23;;;10.70;;
3875;SDS011;1953;51.222;6.624;2022-11-15T06:10:12;14.73;;;10.23;;
3875;SDS011;1953;51.222;6.624;2022-11-15T06:14:55;13.93;;;11.20;;
3875;SDS011;1953;51.222;6.624;2022-11-15T06:19:38;14.27;;;10.93;;
3875;SDS011;1953;51.222;6.624;2022-11-15T06:24:21;14.53;;;10.87;;
3875;SDS011;1953;51.222;6.624;2022-11-15T06:29:03;15.07;;;10.57;;
3875;SDS011;1953;51.222;6.624;2022-11-15T06:33:46;16.50;;;11.00;;
3875;SDS011;1953;51.222;6.624;2022-11-15T06:38:31;17.23;;;10.73;;
3875;SDS011;1953;51.222;6.624;2022-11-15T06:43:13;13.23;;;10.20;;
3875;SDS011;1953;51.222;6.624;2022-11-15T06:47:56;23.63;;;9.60;;
3875;SDS011;1953;51.222;6.624;2022-11-15T06:52:38;15.10;;;10.10;;
3875;SDS011;1953;51.222;6.624;2022-11-15T06:57:22;12.47;;;8.67;;
3875;SDS011;1953;51.222;6.624;2022-11-15T07:02:05;9.80;;;7.20;;
3875;SDS011;1953;51.222;6.624;2022-11-15T07:06:48;9.93;;;7.27;;
3875;SDS011;1953;51.222;6.624;2022-11-15T07:11:30;8.90;;;6.80;;
3875;SDS011;1953;51.222;6.624;2022-11-15T07:16:15;9.13;;;6.70;;
3875;SDS011;1953;51.222;6.624;2022-11-15T07:21:00;7.30;;;5.97;;
3875;SDS011;1953;51.222;6.624;2022-11-15T07:25:43;7.00;;;5.60;;
3875;SDS011;1953;51.222;6.624;2022-11-15T07:30:26;2.60;;;2.17;;
3875;SDS011;1953;51.222;6.624;2022-11-15T07:35:10;1.80;;;1.70;;
3875;SDS011;1953;51.222;6.624;2022-11-15T07:39:53;3.70;;;2.40;;
3875;SDS011;1953;51.222;6.624;2022-11-15T07:44:35;5.33;;;2.40;;
3875;SDS011;1953;51.222;6.624;2022-11-15T07:49:17;2.10;;;1.90;;
3875;SDS011;1953;51.222;6.624;2022-11-15T07:54:01;2.20;;;1.90;;
3875;SDS011;1953;51.222;6.624;2022-11-15T07:58:45;2.27;;;2.07;;
3875;SDS011;1953;51.222;6.624;2022-11-15T08:03:27;4.40;;;2.50;;
3875;SDS011;1953;51.222;6.624;2022-11-15T08:08:10;4.93;;;3.83;;
3875;SDS011;1953;51.222;6.624;2022-11-15T08:13:00;8.70;;;6.00;;
3875;SDS011;1953;51.222;6.624;2022-11-15T08:17:44;10.40;;;7.40;;
3875;SDS011;1953;51.222;6.624;2022-11-15T08:22:26;2.67;;;2.30;;
3875;SDS011;1953;51.222;6.624;2022-11-15T08:27:09;5.30;;;2.80;;
3875;SDS011;1953;51.222;6.624;2022-11-15T08:31:56;7.30;;;3.23;;
3875;SDS011;1953;51.222;6.624;2022-11-15T08:36:39;5.97;;;3.43;;
3875;SDS011;1953;51.222;6.624;2022-11-15T08:41:24;4.80;;;3.40;;
3875;SDS011;1953;51.222;6.624;2022-11-15T08:46:08;6.60;;;5.13;;
3875;SDS011;1953;51.222;6.624;2022-11-15T08:50:55;4.80;;;3.70;;
3875;SDS011;1953;51.222;6.624;2022-11-15T08:55:38;7.63;;;4.00;;
3875;SDS011;1953;51.222;6.624;2022-11-15T09:00:21;7.30;;;5.27;;
3875;SDS011;1953;51.222;6.624;2022-11-15T09:05:04;7.60;;;4.93;;
3875;SDS011;1953;51.222;6.624;2022-11-15T09:09:49;9.90;;;5.00;;
3875;SDS011;1953;51.222;6.624;2022-11-15T09:14:31;10.43;;;4.87;;
3875;SDS011;1953;51.222;6.624;2022-11-15T09:19:13;5.33;;;4.17;;
3875;SDS011;1953;51.222;6.624;2022-11-15T09:23:56;11.97;;;4.53;;
3875;SDS011;1953;51.222;6.624;2022-11-15T09:28:40;4.70;;;3.77;;
3875;SDS011;1953;51.222;6.624;2022-11-15T09:33:23;8.40;;;4.17;;
3875;SDS011;1953;51.222;6.624;2022-11-15T09:38:05;4.83;;;3.03;;
3875;SDS011;1953;51.222;6.624;2022-11-15T09:42:51;3.50;;;3.20;;
3875;SDS011;1953;51.222;6.624;2022-11-15T09:47:49;5.80;;;3.23;;
3875;SDS011;1953;51.222;6.624;2022-11-15T09:52:45;3.80;;;3.27;;
3875;SDS011;1953;51.222;6.624;2022-11-15T09:57:30;5.13;;;2.90;;
3875;SDS011;1953;51.222;6.624;2022-11-15T10:02:23;2.97;;;2.67;;
3875;SDS011;1953;51.222;6.624;2022-11-15T10:07:20;6.00;;;2.40;;
3875;SDS011;1953;51.222;6.624;2022-11-15T10:12:07;3.70;;;2.60;;
3875;SDS011;1953;51.222;6.624;2022-11-15T10:22:16;4.30;;;2.30;;
3875;SDS011;1953;51.222;6.624;2022-11-15T10:27:07;3.90;;;2.30;;
3875;SDS011;1953;51.222;6.624;2022-11-15T10:31:52;2.17;;;1.97;;
3875;SDS011;1953;51.222;6.624;2022-11-15T10:36:35;2.90;;;2.10;;
3875;SDS011;1953;51.222;6.624;2022-11-15T10:41:20;8.20;;;2.60;;
3875;SDS011;1953;51.222;6.624;2022-11-15T10:46:14;3.23;;;2.63;;
3875;SDS011;1953;51.222;6.624;2022-11-15T10:51:02;2.80;;;2.40;;
3875;SDS011;1953;51.222;6.624;2022-11-15T10:56:03;4.40;;;2.53;;
3875;SDS011;1953;51.222;6.624;2022-11-15T11:00:51;12.83;;;3.47;;
3875;SDS011;1953;51.222;6.624;2022-11-15T11:05:35;5.10;;;2.93;;
3875;SDS011;1953;51.222;6.624;2022-11-15T11:10:20;4.50;;;3.40;;
3875;SDS011;1953;51.222;6.624;2022-11-15T11:15:09;3.67;;;2.10;;
3875;SDS011;1953;51.222;6.624;2022-11-15T11:19:58;5.80;;;3.23;;
3875;SDS011;1953;51.222;6.624;2022-11-15T11:24:46;3.90;;;2.50;;
3875;SDS011;1953;51.222;6.624;2022-11-15T11:29:36;4.07;;;2.60;;
3875;SDS011;1953;51.222;6.624;2022-11-15T11:34:30;7.87;;;4.57;;
3875;SDS011;1953;51.222;6.624;2022-11-15T11:39:27;7.90;;;2.10;;
3875;SDS011;1953;51.222;6.624;2022-11-15T11:44:24;3.57;;;2.33;;
3875;SDS011;1953;51.222;6.624;2022-11-15T11:49:15;2.83;;;1.90;;
3875;SDS011;1953;51.222;6.624;2022-11-15T11:54:03;3.10;;;2.23;;
3875;SDS011;1953;51.222;6.624;2022-11-15T12:03:38;4.37;;;1.47;;
3875;SDS011;1953;51.222;6.624;2022-11-15T12:09:30;5.53;;;1.63;;
3875;SDS011;1953;51.222;6.624;2022-11-15T12:14:19;5.03;;;1.73;;
3875;SDS011;1953;51.222;6.624;2022-11-15T12:19:09;5.17;;;1.63;;
3875;SDS011;1953;51.222;6.624;2022-11-15T12:23:52;3.83;;;1.50;;
3875;SDS011;1953;51.222;6.624;2022-11-15T12:28:45;10.03;;;1.60;;
3875;SDS011;1953;51.222;6.624;2022-11-15T12:33:31;10.33;;;1.33;;
3875;SDS011;1953;51.222;6.624;2022-11-15T12:38:49;6.47;;;1.73;;
3875;SDS011;1953;51.222;6.624;2022-11-15T12:43:37;3.00;;;1.10;;
3875;SDS011;1953;51.222;6.624;2022-11-15T12:53:42;4.50;;;1.40;;
3875;SDS011;1953;51.222;6.624;2022-11-15T12:58:28;6.67;;;1.20;;
3875;SDS011;1953;51.222;6.624;2022-11-15T13:03:27;3.77;;;1.47;;
3875;SDS011;1953;51.222;6.624;2022-11-15T13:08:10;1.40;;;1.30;;
3875;SDS011;1953;51.222;6.624;2022-11-15T13:13:46;4.30;;;1.80;;
3875;SDS011;1953;51.222;6.624;2022-11-15T13:18:30;2.10;;;1.30;;
3875;SDS011;1953;51.222;6.624;2022-11-15T13:23:15;2.73;;;1.50;;
3875;SDS011;1953;51.222;6.624;2022-11-15T13:27:58;2.27;;;1.27;;
3875;SDS011;1953;51.222;6.624;2022-11-15T13:32:43;3.50;;;1.60;;
3875;SDS011;1953;51.222;6.624;2022-11-15T13:37:29;6.60;;;1.77;;
3875;SDS011;1953;51.222;6.624;2022-11-15T13:42:13;3.70;;;1.70;;
3875;SDS011;1953;51.222;6.624;2022-11-15T13:47:03;2.30;;;1.70;;
3875;SDS011;1953;51.222;6.624;2022-11-15T13:51:49;2.50;;;1.40;;
3875;SDS011;1953;51.222;6.624;2022-11-15T13:56:34;6.37;;;2.10;;
3875;SDS011;1953;51.222;6.624;2022-11-15T14:01:18;4.97;;;2.20;;
3875;SDS011;1953;51.222;6.624;2022-11-15T14:06:03;7.03;;;2.17;;
3875;SDS011;1953;51.222;6.624;2022-11-15T14:11:06;2.43;;;1.40;;
3875;SDS011;1953;51.222;6.624;2022-11-15T14:15:51;2.80;;;1.60;;
3875;SDS011;1953;51.222;6.624;2022-11-15T14:20:34;3.90;;;2.57;;
3875;SDS011;1953;51.222;6.624;2022-11-15T14:25:19;3.40;;;2.37;;
3875;SDS011;1953;51.222;6.624;2022-11-15T14:30:04;7.73;;;3.23;;
3875;SDS011;1953;51.222;6.624;2022-11-15T14:34:47;2.00;;;1.80;;
3875;SDS011;1953;51.222;6.624;2022-11-15T14:39:31;4.67;;;2.80;;
3875;SDS011;1953;51.222;6.624;2022-11-15T14:44:13;6.90;;;3.20;;
3875;SDS011;1953;51.222;6.624;2022-11-15T14:49:00;2.97;;;2.67;;
3875;SDS011;1953;51.222;6.624;2022-11-15T14:53:43;6.97;;;3.40;;
3875;SDS011;1953;51.222;6.624;2022-11-15T14:58:26;6.77;;;3.30;;
3875;SDS011;1953;51.222;6.624;2022-11-15T15:03:08;5.50;;;3.50;;
3875;SDS011;1953;51.222;6.624;2022-11-15T15:07:52;5.03;;;3.33;;
3875;SDS011;1953;51.222;6.624;2022-11-15T15:12:34;5.70;;;3.70;;
3875;SDS011;1953;51.222;6.624;2022-11-15T15:17:17;4.80;;;3.83;;
3875;SDS011;1953;51.222;6.624;2022-11-15T15:21:59;5.30;;;4.00;;
3875;SDS011;1953;51.222;6.624;2022-11-15T15:26:43;7.13;;;4.17;;
3875;SDS011;1953;51.222;6.624;2022-11-15T15:31:25;5.53;;;3.23;;
3875;SDS011;1953;51.222;6.624;2022-11-15T15:36:09;5.47;;;3.77;;
3875;SDS011;1953;51.222;6.624;2022-11-15T15:40:53;3.83;;;3.43;;
3875;SDS011;1953;51.222;6.624;2022-11-15T15:45:37;7.10;;;3.90;;
3875;SDS011;1953;51.222;6.624;2022-11-15T15:50:21;6.63;;;4.23;;
3875;SDS011;1953;51.222;6.624;2022-11-15T15:55:05;6.80;;;3.60;;
3875;SDS011;1953;51.222;6.624;2022-11-15T15:59:48;5.70;;;4.30;;
3875;SDS011;1953;51.222;6.624;2022-11-15T16:04:31;4.23;;;3.60;;
3875;SDS011;1953;51.222;6.624;2022-11-15T16:09:14;5.27;;;3.90;;
3875;SDS011;1953;51.222;6.624;2022-11-15T16:13:58;4.93;;;3.70;;
3875;SDS011;1953;51.222;6.624;2022-11-15T16:18:40;5.10;;;3.63;;
3875;SDS011;1953;51.222;6.624;2022-11-15T16:23:24;6.50;;;3.70;;
3875;SDS011;1953;51.222;6.624;2022-11-15T16:28:11;8.23;;;3.23;;
3875;SDS011;1953;51.222;6.624;2022-11-15T16:32:58;8.90;;;3.50;;
3875;SDS011;1953;51.222;6.624;2022-11-15T16:37:41;5.17;;;3.30;;
3875;SDS011;1953;51.222;6.624;2022-11-15T16:42:26;6.03;;;3.70;;
3875;SDS011;1953;51.222;6.624;2022-11-15T16:47:12;4.77;;;3.70;;
3875;SDS011;1953;51.222;6.624;2022-11-15T16:51:59;6.00;;;4.13;;
3875;SDS011;1953;51.222;6.624;2022-11-15T16:56:41;5.90;;;3.00;;
3875;SDS011;1953;51.222;6.624;2022-11-15T17:01:25;5.07;;;3.40;;
3875;SDS011;1953;51.222;6.624;2022-11-15T17:06:09;3.60;;;3.00;;
3875;SDS011;1953;51.222;6.624;2022-11-15T17:10:53;4.10;;;3.10;;
3875;SDS011;1953;51.222;6.624;2022-11-15T17:15:36;7.60;;;3.33;;
3875;SDS011;1953;51.222;6.624;2022-11-15T17:20:20;4.13;;;3.60;;
3875;SDS011;1953;51.222;6.624;2022-11-15T17:25:04;9.40;;;3.40;;
3875;SDS011;1953;51.222;6.624;2022-11-15T17:29:47;5.00;;;3.20;;
3875;SDS011;1953;51.222;6.624;2022-11-15T17:34:29;5.83;;;3.60;;
3875;SDS011;1953;51.222;6.624;2022-11-15T17:39:13;5.63;;;3.97;;
3875;SDS011;1953;51.222;6.624;2022-11-15T17:43:55;7.57;;;4.43;;
3875;SDS011;1953;51.222;6.624;2022-11-15T17:48:39;5.10;;;3.53;;
3875;SDS011;1953;51.222;6.624;2022-11-15T17:53:23;5.50;;;4.00;;
3875;SDS011;1953;51.222;6.624;2022-11-15T17:58:06;4.00;;;3.60;;
3875;SDS011;1953;51.222;6.624;2022-11-15T18:02:49;5.67;;;3.73;;
3875;SDS011;1953;51.222;6.624;2022-11-15T18:07:31;7.87;;;4.10;;
3875;SDS011;1953;51.222;6.624;2022-11-15T18:12:14;5.97;;;4.23;;
3875;SDS011;1953;51.222;6.624;2022-11-15T18:16:58;11.30;;;4.43;;
3875;SDS011;1953;51.222;6.624;2022-11-15T18:21:41;5.13;;;3.80;;
3875;SDS011;1953;51.222;6.624;2022-11-15T18:26:41;6.30;;;4.10;;
3875;SDS011;1953;51.222;6.624;2022-11-15T18:31:23;5.83;;;4.50;;
3875;SDS011;1953;51.222;6.624;2022-11-15T18:36:10;5.53;;;4.20;;
3875;SDS011;1953;51.222;6.624;2022-11-15T18:40:54;6.53;;;4.60;;
3875;SDS011;1953;51.222;6.624;2022-11-15T18:45:36;5.63;;;4.60;;
3875;SDS011;1953;51.222;6.624;2022-11-15T18:50:18;5.83;;;4.60;;
3875;SDS011;1953;51.222;6.624;2022-11-15T18:55:02;9.53;;;5.13;;
3875;SDS011;1953;51.222;6.624;2022-11-15T18:59:45;7.83;;;5.87;;
3875;SDS011;1953;51.222;6.624;2022-11-15T19:04:27;8.47;;;5.20;;
3875;SDS011;1953;51.222;6.624;2022-11-15T19:09:11;5.97;;;5.20;;
3875;SDS011;1953;51.222;6.624;2022-11-15T19:13:56;7.37;;;5.70;;
3875;SDS011;1953;51.222;6.624;2022-11-15T19:18:40;8.77;;;6.43;;
3875;SDS011;1953;51.222;6.624;2022-11-15T19:23:23;9.47;;;6.47;;
3875;SDS011;1953;51.222;6.624;2022-11-15T19:28:05;11.13;;;6.53;;
3875;SDS011;1953;51.222;6.624;2022-11-15T19:32:49;8.47;;;6.23;;
3875;SDS011;1953;51.222;6.624;2022-11-15T19:37:33;9.20;;;6.47;;
3875;SDS011;1953;51.222;6.624;2022-11-15T19:42:15;9.87;;;6.70;;
3875;SDS011;1953;51.222;6.624;2022-11-15T19:46:58;10.20;;;7.13;;
3875;SDS011;1953;51.222;6.624;2022-11-15T19:51:41;12.17;;;7.50;;
3875;SDS011;1953;51.222;6.624;2022-11-15T19:56:26;12.53;;;7.83;;
3875;SDS011;1953;51.222;6.624;2022-11-15T20:01:11;13.40;;;8.80;;
3875;SDS011;1953;51.222;6.624;2022-11-15T20:06:00;14.73;;;9.00;;
3875;SDS011;1953;51.222;6.624;2022-11-15T20:10:44;18.10;;;9.53;;
3875;SDS011;1953;51.222;6.624;2022-11-15T20:15:28;12.63;;;9.60;;
3875;SDS011;1953;51.222;6.624;2022-11-15T20:20:11;13.40;;;9.90;;
3875;SDS011;1953;51.222;6.624;2022-11-15T20:24:53;15.90;;;10.67;;
3875;SDS011;1953;51.222;6.624;2022-11-15T20:29:37;18.30;;;10.80;;
3875;SDS011;1953;51.222;6.624;2022-11-15T20:34:19;14.60;;;9.80;;
3875;SDS011;1953;51.222;6.624;2022-11-15T20:39:02;16.00;;;9.43;;
3875;SDS011;1953;51.222;6.624;2022-11-15T20:43:44;19.30;;;10.80;;
3875;SDS011;1953;51.222;6.624;2022-11-15T20:48:28;17.90;;;11.57;;
3875;SDS011;1953;51.222;6.624;2022-11-15T20:53:11;17.43;;;10.70;;
3875;SDS011;1953;51.222;6.624;2022-11-15T20:57:54;16.97;;;11.80;;
3875;SDS011;1953;51.222;6.624;2022-11-15T21:02:36;14.13;;;10.30;;
3875;SDS011;1953;51.222;6.624;2022-11-15T21:07:20;15.07;;;11.53;;
3875;SDS011;1953;51.222;6.624;2022-11-15T21:12:03;15.43;;;11.90;;
3875;SDS011;1953;51.222;6.624;2022-11-15T21:16:52;15.77;;;11.90;;
3875;SDS011;1953;51.222;6.624;2022-11-15T21:21:34;17.73;;;11.37;;
3875;SDS011;1953;51.222;6.624;2022-11-15T21:26:19;16.00;;;10.90;;
3875;SDS011;1953;51.222;6.624;2022-11-15T21:31:01;13.73;;;10.87;;
3875;SDS011;1953;51.222;6.624;2022-11-15T21:35:43;15.70;;;11.23;;
3875;SDS011;1953;51.222;6.624;2022-11-15T21:40:26;17.37;;;10.37;;
3875;SDS011;1953;51.222;6.624;2022-11-15T21:45:10;16.17;;;11.00;;
3875;SDS011;1953;51.222;6.624;2022-11-15T21:49:52;16.40;;;12.07;;
3875;SDS011;1953;51.222;6.624;2022-11-15T21:54:35;23.57;;;12.27;;
3875;SDS011;1953;51.222;6.624;2022-11-15T21:59:18;15.33;;;11.50;;
3875;SDS011;1953;51.222;6.624;2022-11-15T22:04:02;18.63;;;12.77;;
3875;SDS011;1953;51.222;6.624;2022-11-15T22:08:45;20.17;;;12.17;;
3875;SDS011;1953;51.222;6.624;2022-11-15T22:13:28;16.60;;;12.10;;
3875;SDS011;1953;51.222;6.624;2022-11-15T22:18:10;16.63;;;12.10;;
3875;SDS011;1953;51.222;6.624;2022-11-15T22:22:54;19.13;;;12.43;;
3875;SDS011;1953;51.222;6.624;2022-11-15T22:27:37;19.67;;;11.57;;
3875;SDS011;1953;51.222;6.624;2022-11-15T22:32:20;17.37;;;12.00;;
3875;SDS011;1953;51.222;6.624;2022-11-15T22:37:03;15.47;;;11.90;;
3875;SDS011;1953;51.222;6.624;2022-11-15T22:41:46;17.20;;;11.40;;
3875;SDS011;1953;51.222;6.624;2022-11-15T22:46:29;17.27;;;11.80;;
3875;SDS011;1953;51.222;6.624;2022-11-15T22:51:11;15.13;;;11.47;;
3875;SDS011;1953;51.222;6.624;2022-11-15T22:55:54;15.87;;;11.87;;
3875;SDS011;1953;51.222;6.624;2022-11-15T23:00:39;15.80;;;10.80;;
3875;SDS011;1953;51.222;6.624;2022-11-15T23:05:21;17.07;;;11.90;;
3875;SDS011;1953;51.222;6.624;2022-11-15T23:10:04;19.60;;;11.57;;
3875;SDS011;1953;51.222;6.624;2022-11-15T23:15:05;15.37;;;10.80;;
3875;SDS011;1953;51.222;6.624;2022-11-15T23:19:49;15.50;;;10.77;;
3875;SDS011;1953;51.222;6.624;2022-11-15T23:24:32;20.20;;;12.10;;
3875;SDS011;1953;51.222;6.624;2022-11-15T23:29:15;15.80;;;10.93;;
3875;SDS011;1953;51.222;6.624;2022-11-15T23:33:59;14.50;;;10.40;;
3875;SDS011;1953;51.222;6.624;2022-11-15T23:38:42;13.37;;;10.43;;
3875;SDS011;1953;51.222;6.624;2022-11-15T23:43:24;14.43;;;10.00;;
3875;SDS011;1953;51.222;6.624;2022-11-15T23:48:07;15.20;;;10.33;;
3875;SDS011;1953;51.222;6.624;2022-11-15T23:52:49;15.07;;;10.17;;
3875;SDS011;1953;51.222;6.624;2022-11-15T23:57:33;14.67;;;10.27;;
